blog-images.homethangs.com - /2018/09/


[To Parent Directory]

9/20/2018 4:25 PM 6340 Andros-Black-Lacquer-Buffet-CDF-D4100-from-Contemporary-Design-Furniture-150x150.jpg
9/20/2018 4:25 PM 24534 Andros-Black-Lacquer-Buffet-CDF-D4100-from-Contemporary-Design-Furniture-400x300.jpg
9/20/2018 4:25 PM 67422 Andros-Black-Lacquer-Buffet-CDF-D4100-from-Contemporary-Design-Furniture.jpg
9/20/2018 4:28 PM 6653 Astoria-White-Concrete-Buffet-TOV-D7066-from-TOV-Furniture-150x150.jpg
9/20/2018 4:28 PM 28497 Astoria-White-Concrete-Buffet-TOV-D7066-from-TOV-Furniture-400x333.jpg
9/20/2018 4:28 PM 80240 Astoria-White-Concrete-Buffet-TOV-D7066-from-TOV-Furniture.jpg
9/10/2018 6:30 PM 6351 Banquettes-are-compact-and-out-of-the-way-affording-a-greater-seating-capacity-in-less-space-than-a-conventional-kitchen-table-by-Hanomoco-Design-150x150.jpg
9/10/2018 6:30 PM 27051 Banquettes-are-compact-and-out-of-the-way-affording-a-greater-seating-capacity-in-less-space-than-a-conventional-kitchen-table-by-Hanomoco-Design-400x337.jpg
9/10/2018 6:30 PM 75199 Banquettes-are-compact-and-out-of-the-way-affording-a-greater-seating-capacity-in-less-space-than-a-conventional-kitchen-table-by-Hanomoco-Design.jpg
9/7/2018 2:07 PM 6299 Black-Knight-Group-150x150.jpg
9/7/2018 2:07 PM 19229 Black-Knight-Group-266x400.jpg
9/7/2018 2:07 PM 50853 Black-Knight-Group.jpg
9/9/2018 3:15 PM 6154 blue-chair-150x150.jpg
9/9/2018 3:15 PM 35371 blue-chair-400x400.jpg
9/9/2018 3:15 PM 106943 blue-chair.jpg
9/9/2018 3:20 PM 6277 blue-kitchen-lighting-150x150.jpg
9/9/2018 3:20 PM 22364 blue-kitchen-lighting-400x299.jpg
9/9/2018 3:20 PM 58100 blue-kitchen-lighting.jpg
9/10/2018 6:38 PM 7402 blue-pendant-light-150x150.jpg
9/10/2018 6:38 PM 21067 blue-pendant-light-266x400.jpg
9/10/2018 6:38 PM 50835 blue-pendant-light.jpg
9/20/2018 4:41 PM 8458 buffet-table-150x150.jpg
9/20/2018 4:41 PM 20379 buffet-table-400x179.jpg
9/20/2018 4:41 PM 81147 buffet-table.jpg
9/5/2018 2:44 PM 6736 chaise-150x150.jpg
9/5/2018 2:44 PM 21732 chaise-267x400.jpg
9/5/2018 2:44 PM 61494 chaise.jpg
9/20/2018 4:27 PM 5754 Collette-Sideboard-Buffet-309-from-Meridian-Furniture-150x150.jpg
9/20/2018 4:27 PM 21491 Collette-Sideboard-Buffet-309-from-Meridian-Furniture-400x305.jpg
9/20/2018 4:27 PM 59112 Collette-Sideboard-Buffet-309-from-Meridian-Furniture.jpg
9/8/2018 2:17 PM 6779 colorful-reading-chair-150x150.jpg
9/8/2018 2:17 PM 27806 colorful-reading-chair-347x400.jpg
9/8/2018 2:17 PM 73883 colorful-reading-chair.jpg
9/10/2018 6:15 PM 7217 Combining-island-seating-with-a-casual-dining-table-lets-you-maximize-your-greatrooms-seating-capaicty-while-allowing-flexible-options-for-your-familys-everyday-eating-habits-by-Demetriades-Walker-150x150.jpg
9/10/2018 6:15 PM 25371 Combining-island-seating-with-a-casual-dining-table-lets-you-maximize-your-greatrooms-seating-capaicty-while-allowing-flexible-options-for-your-familys-everyday-eating-habits-by-Demetriades-Walker-400x266.jpg
9/10/2018 6:15 PM 104723 Combining-island-seating-with-a-casual-dining-table-lets-you-maximize-your-greatrooms-seating-capaicty-while-allowing-flexible-options-for-your-familys-everyday-eating-habits-by-Demetriades-Walker.jpg
9/11/2018 3:41 PM 7637 dining-tables-150x150.jpg
9/11/2018 3:41 PM 17294 dining-tables-400x164.jpg
9/11/2018 3:41 PM 78697 dining-tables.jpg
9/14/2018 4:43 PM 6503 feature-image-1-150x150.jpg
9/14/2018 4:43 PM 14587 feature-image-1-400x164.jpg
9/14/2018 4:43 PM 61664 feature-image-1.jpg
9/7/2018 5:55 PM 5192 feature-image-150x150.jpg
9/21/2018 1:51 PM 5212 feature-image-2-150x150.jpg
9/21/2018 1:51 PM 14215 feature-image-2-400x164.jpg
9/21/2018 1:51 PM 69284 feature-image-2.jpg
9/7/2018 5:55 PM 17201 feature-image-400x191.jpg
9/7/2018 5:55 PM 62507 feature-image.jpg
9/14/2018 1:59 PM 3965 freestanding-bathtubs-150x150.jpg
9/14/2018 1:59 PM 10174 freestanding-bathtubs-400x164.jpg
9/14/2018 1:59 PM 56925 freestanding-bathtubs.jpg
9/14/2018 1:52 PM 4764 Freestanding-Clawfoot-Bathtub-VA6310-L-from-Vanity-Art-150x150.jpg
9/14/2018 1:52 PM 18186 Freestanding-Clawfoot-Bathtub-VA6310-L-from-Vanity-Art-400x345.jpg
9/14/2018 1:52 PM 49196 Freestanding-Clawfoot-Bathtub-VA6310-L-from-Vanity-Art.jpg
9/10/2018 6:47 PM 6616 green-pendant-light-150x150.jpg
9/10/2018 6:47 PM 20641 green-pendant-light-400x263.jpg
9/10/2018 6:47 PM 56995 green-pendant-light.jpg
9/7/2018 3:01 PM 4592 guest-bath-150x150.jpg
9/7/2018 3:01 PM 9441 guest-bath-400x164.jpg
9/7/2018 3:01 PM 36619 guest-bath.jpg
9/14/2018 1:53 PM 4077 Kahl-Freestanding-Bathtub-FT-AZ094-from-Anzzi-150x150.jpg
9/14/2018 1:53 PM 16554 Kahl-Freestanding-Bathtub-FT-AZ094-from-Anzzi-400x288.jpg
9/14/2018 1:53 PM 52044 Kahl-Freestanding-Bathtub-FT-AZ094-from-Anzzi.jpg
9/10/2018 5:24 PM 6599 Kitchen-island-seating-is-great-for-getting-the-family-involved-in-meal-prep-but-is-less-conductive-to-face-to-face-interaction-by-Coats-Homes-150x150.jpg
9/10/2018 5:24 PM 27403 Kitchen-island-seating-is-great-for-getting-the-family-involved-in-meal-prep-but-is-less-conductive-to-face-to-face-interaction-by-Coats-Homes-400x339.jpg
9/10/2018 5:24 PM 77502 Kitchen-island-seating-is-great-for-getting-the-family-involved-in-meal-prep-but-is-less-conductive-to-face-to-face-interaction-by-Coats-Homes.jpg
9/10/2018 6:44 PM 6016 Kitchen-islands-with-seating-for-one-or-two-wont-cut-it-for-big-family-dinners-but-are-perfect-for-a-quick-meal-or-a-relaxing-morning-by-Orbis-Design-150x150.jpg
9/10/2018 6:44 PM 24033 Kitchen-islands-with-seating-for-one-or-two-wont-cut-it-for-big-family-dinners-but-are-perfect-for-a-quick-meal-or-a-relaxing-morning-by-Orbis-Design-400x379.jpg
9/10/2018 6:44 PM 65494 Kitchen-islands-with-seating-for-one-or-two-wont-cut-it-for-big-family-dinners-but-are-perfect-for-a-quick-meal-or-a-relaxing-morning-by-Orbis-Design.jpg
9/14/2018 1:46 PM 3563 Modern-Octagon-Freestanding-Soaking-Tub-N-620-63FSWH-FM-from-Streamline-Bath-150x150.jpg
9/14/2018 1:46 PM 13696 Modern-Octagon-Freestanding-Soaking-Tub-N-620-63FSWH-FM-from-Streamline-Bath-400x400.jpg
9/14/2018 1:46 PM 36941 Modern-Octagon-Freestanding-Soaking-Tub-N-620-63FSWH-FM-from-Streamline-Bath.jpg
9/14/2018 1:43 PM 5457 Nimbus-One-pIece-Acrylic-Freestanding-Bathtub-FT-AZ068-from-Anzzi-150x150.jpg
9/14/2018 1:43 PM 21492 Nimbus-One-pIece-Acrylic-Freestanding-Bathtub-FT-AZ068-from-Anzzi-400x300.jpg
9/14/2018 1:43 PM 59629 Nimbus-One-pIece-Acrylic-Freestanding-Bathtub-FT-AZ068-from-Anzzi.jpg
9/14/2018 1:48 PM 4140 Ondulato-White-Freestanding-Bathtub-KFST7659-from-KubeBath-150x150.jpg
9/14/2018 1:48 PM 12722 Ondulato-White-Freestanding-Bathtub-KFST7659-from-KubeBath-400x223.jpg
9/14/2018 1:48 PM 34430 Ondulato-White-Freestanding-Bathtub-KFST7659-from-KubeBath.jpg
9/11/2018 3:46 PM 7285 orange-pendant-light-150x150.jpg
9/11/2018 3:46 PM 23071 orange-pendant-light-400x267.jpg
9/11/2018 3:46 PM 61616 orange-pendant-light.jpg
9/19/2018 1:06 PM 5030 pink-bedroom-150x150.jpg
9/19/2018 1:06 PM 19841 pink-bedroom-400x309.jpg
9/19/2018 1:10 PM 6352 pink-bedroom-frame-150x150.jpg
9/19/2018 1:10 PM 24195 pink-bedroom-frame-400x302.jpg
9/19/2018 1:10 PM 66879 pink-bedroom-frame.jpg
9/19/2018 1:06 PM 55401 pink-bedroom.jpg
9/19/2018 1:15 PM 6111 pink-chair-150x150.jpg
9/20/2018 4:54 PM 7419 pink-chair-2-150x150.jpg
9/20/2018 4:54 PM 35636 pink-chair-2-400x400.jpg
9/20/2018 4:54 PM 101035 pink-chair-2.jpg
9/19/2018 1:15 PM 30034 pink-chair-400x400.jpg
9/19/2018 1:35 PM 7911 pink-chair-bedroom-150x150.jpg
9/19/2018 1:35 PM 28724 pink-chair-bedroom-400x263.jpg
9/19/2018 1:35 PM 79141 pink-chair-bedroom.jpg
9/19/2018 1:15 PM 85445 pink-chair.jpg
9/19/2018 1:20 PM 7165 pink-dresser-150x150.jpg
9/19/2018 1:20 PM 28740 pink-dresser-400x327.jpg
9/19/2018 1:20 PM 73629 pink-dresser.jpg
9/19/2018 1:14 PM 5522 pink-rug-150x150.jpg
9/19/2018 1:14 PM 17420 pink-rug-400x265.jpg
9/19/2018 1:14 PM 45756 pink-rug.jpg
9/14/2018 1:50 PM 3638 Prima-Freestanding-Bathtub-In-White-FT-AZ095-from-Anzzi-150x150.jpg
9/14/2018 1:50 PM 11349 Prima-Freestanding-Bathtub-In-White-FT-AZ095-from-Anzzi-400x236.jpg
9/14/2018 1:50 PM 30292 Prima-Freestanding-Bathtub-In-White-FT-AZ095-from-Anzzi.jpg
9/6/2018 1:19 PM 6886 reading-chair-150x150.jpg
9/6/2018 1:19 PM 34854 reading-chair-400x400.jpg
9/6/2018 1:19 PM 97894 reading-chair.jpg
9/6/2018 2:28 PM 7568 reading-nook-150x150.jpg
9/6/2018 2:28 PM 23176 reading-nook-267x400.jpg
9/6/2018 2:28 PM 63640 reading-nook.jpg
9/8/2018 5:17 PM 5989 reading-nursery-1-150x150.jpg
9/8/2018 5:17 PM 21610 reading-nursery-1-300x400.jpg
9/8/2018 5:17 PM 58650 reading-nursery-1.jpg
9/7/2018 4:54 PM 5997 reading-nursery-150x150.jpg
9/7/2018 4:54 PM 21398 reading-nursery-298x400.jpg
9/7/2018 4:54 PM 58128 reading-nursery.jpg
9/7/2018 5:31 PM 8626 reading-room-150x150.jpg
9/7/2018 5:31 PM 30517 reading-room-303x400.jpg
9/7/2018 5:31 PM 78697 reading-room.jpg
9/10/2018 6:42 PM 7510 red-pendant-light-150x150.jpg
9/10/2018 6:42 PM 24650 red-pendant-light-400x268.jpg
9/10/2018 6:42 PM 63689 red-pendant-light.jpg
9/10/2018 6:50 PM 6936 Round-tables-arent-the-best-for-meals-but-theyre-great-for-gathering-and-an-excellent-way-to-make-a-traditional-dining-room-a-little-more-user-friendly-by-Interior-Marketing-Group-150x150.jpg
9/10/2018 6:50 PM 30306 Round-tables-arent-the-best-for-meals-but-theyre-great-for-gathering-and-an-excellent-way-to-make-a-traditional-dining-room-a-little-more-user-friendly-by-Interior-Marketing-Group-388x400.jpg
9/10/2018 6:50 PM 81449 Round-tables-arent-the-best-for-meals-but-theyre-great-for-gathering-and-an-excellent-way-to-make-a-traditional-dining-room-a-little-more-user-friendly-by-Interior-Marketing-Group.jpg
9/10/2018 5:06 PM 9033 Traditional-dining-rooms-are-meant-to-seat-a-crowd-for-a-formal-sit-down-dinner-but-for-many-of-us-these-types-of-gatherings-have-become-a-rarity-by-Artistic-Designs-for-Living-150x150.jpg
9/10/2018 5:06 PM 34699 Traditional-dining-rooms-are-meant-to-seat-a-crowd-for-a-formal-sit-down-dinner-but-for-many-of-us-these-types-of-gatherings-have-become-a-rarity-by-Artistic-Designs-for-Living-318x400.jpg
9/10/2018 5:06 PM 101837 Traditional-dining-rooms-are-meant-to-seat-a-crowd-for-a-formal-sit-down-dinner-but-for-many-of-us-these-types-of-gatherings-have-become-a-rarity-by-Artistic-Designs-for-Living.jpg
9/20/2018 4:05 PM 8693 Utopia-4-Bottle-Wine-Rack-Sideboard-Buffet-S-tand-1010451-from-Manhattan-Comfort-150x150.jpg
9/20/2018 4:05 PM 25680 Utopia-4-Bottle-Wine-Rack-Sideboard-Buffet-S-tand-1010451-from-Manhattan-Comfort-400x250.jpg
9/20/2018 4:05 PM 66275 Utopia-4-Bottle-Wine-Rack-Sideboard-Buffet-S-tand-1010451-from-Manhattan-Comfort.jpg
9/20/2018 4:22 PM 6550 Venice-Buffet-HJ044UT-from-Chic-Teak-150x150.jpg
9/20/2018 4:22 PM 27909 Venice-Buffet-HJ044UT-from-Chic-Teak-379x400.jpg
9/20/2018 4:22 PM 81509 Venice-Buffet-HJ044UT-from-Chic-Teak.jpg
9/20/2018 4:19 PM 5930 Viennese-6-Shelf-Buffet-Cabinet-100652-from-Manhattan-Comfort-150x150.jpg
9/20/2018 4:19 PM 22033 Viennese-6-Shelf-Buffet-Cabinet-100652-from-Manhattan-Comfort-400x300.jpg
9/20/2018 4:19 PM 61063 Viennese-6-Shelf-Buffet-Cabinet-100652-from-Manhattan-Comfort.jpg